createdAt,value
2023-05-17T00:00:22.813Z,99.99
2023-05-17T00:01:22.609Z,99.99
2023-05-17T00:02:22.565Z,99.99
2023-05-17T00:03:22.792Z,99.99
2023-05-17T00:04:22.551Z,99.99
2023-05-17T00:05:22.938Z,99.99
2023-05-17T00:06:22.667Z,99.99
2023-05-17T00:07:22.528Z,99.99
2023-05-17T00:08:22.532Z,99.99
2023-05-17T00:09:22.490Z,99.99
2023-05-17T00:10:23.050Z,99.99
2023-05-17T00:11:22.488Z,99.99
2023-05-17T00:12:22.653Z,99.99
2023-05-17T00:13:22.571Z,99.99
2023-05-17T00:14:22.462Z,99.99
2023-05-17T00:15:22.442Z,99.99
2023-05-17T00:16:22.605Z,99.99
2023-05-17T00:17:22.401Z,99.99
2023-05-17T00:18:22.514Z,99.99
2023-05-17T00:19:22.746Z,99.99
2023-05-17T00:20:22.345Z,99.99
2023-05-17T00:21:22.404Z,99.99
2023-05-17T00:22:22.462Z,99.99
2023-05-17T00:23:22.348Z,99.99
2023-05-17T00:24:22.310Z,99.99
2023-05-17T00:25:22.283Z,99.99
2023-05-17T00:26:22.307Z,99.99
2023-05-17T00:27:22.315Z,99.99
2023-05-17T00:28:22.255Z,99.99
2023-05-17T00:29:22.253Z,99.99
2023-05-17T00:30:22.243Z,99.99
2023-05-17T00:31:22.285Z,99.99
2023-05-17T00:32:22.220Z,99.99
2023-05-17T00:33:22.257Z,99.99
2023-05-17T00:34:22.183Z,99.99
2023-05-17T00:35:22.382Z,99.99
2023-05-17T00:36:22.163Z,99.99
2023-05-17T00:37:22.148Z,99.99
2023-05-17T00:38:22.284Z,99.99
2023-05-17T00:39:22.147Z,99.99
2023-05-17T00:40:22.126Z,99.99
2023-05-17T00:41:22.301Z,99.99
2023-05-17T00:42:22.129Z,99.99
2023-05-17T00:43:22.064Z,99.99
2023-05-17T00:44:22.073Z,99.99
2023-05-17T00:45:22.077Z,99.99
2023-05-17T00:46:22.048Z,99.99
2023-05-17T00:47:22.164Z,99.99
2023-05-17T00:48:22.108Z,99.99
2023-05-17T00:49:22.037Z,99.99
2023-05-17T00:50:22.007Z,99.99
2023-05-17T00:51:22.035Z,99.99
2023-05-17T00:52:22.019Z,99.99
2023-05-17T00:53:21.946Z,99.99
2023-05-17T00:54:22.068Z,99.99
2023-05-17T00:55:21.966Z,99.99
2023-05-17T00:56:21.981Z,99.99
2023-05-17T00:57:21.979Z,99.99
2023-05-17T00:58:21.910Z,99.99
2023-05-17T00:59:21.938Z,99.99
2023-05-17T01:00:21.886Z,99.99
2023-05-17T01:01:21.886Z,99.99
2023-05-17T01:02:21.881Z,99.99
2023-05-17T01:03:21.972Z,99.99
2023-05-17T01:04:21.942Z,99.99
2023-05-17T01:05:21.848Z,99.99
2023-05-17T01:06:21.839Z,99.99
2023-05-17T01:07:22.011Z,99.99
2023-05-17T01:08:21.864Z,99.99
2023-05-17T01:09:21.806Z,99.99
2023-05-17T01:10:22.013Z,99.99
2023-05-17T01:11:21.764Z,99.99
2023-05-17T01:12:21.941Z,99.99
2023-05-17T01:13:21.737Z,99.99
2023-05-17T01:14:22.088Z,99.99
2023-05-17T01:15:21.688Z,99.99
2023-05-17T01:16:21.694Z,99.99
2023-05-17T01:17:21.726Z,99.99
2023-05-17T01:18:21.881Z,99.99
2023-05-17T01:19:21.744Z,99.99
2023-05-17T01:20:21.674Z,99.99
2023-05-17T01:21:21.613Z,99.99
2023-05-17T01:22:21.598Z,99.99
2023-05-17T01:23:21.612Z,99.99
2023-05-17T01:24:21.612Z,99.99
2023-05-17T01:25:21.568Z,99.99
2023-05-17T01:26:21.715Z,99.99
2023-05-17T01:27:21.564Z,99.99
2023-05-17T01:28:21.543Z,99.99
2023-05-17T01:29:21.517Z,99.99
2023-05-17T01:30:21.516Z,99.99
2023-05-17T01:31:21.486Z,99.99
2023-05-17T01:32:21.466Z,99.99
2023-05-17T01:33:21.637Z,99.99
2023-05-17T01:34:21.458Z,99.99
2023-05-17T01:35:21.454Z,99.99
2023-05-17T01:36:21.837Z,99.99
2023-05-17T01:37:21.416Z,99.99
2023-05-17T01:38:21.390Z,99.99
2023-05-17T01:39:21.421Z,99.99
2023-05-17T01:40:21.381Z,99.99
2023-05-17T01:41:21.378Z,99.99
2023-05-17T01:42:21.445Z,99.99
2023-05-17T01:43:21.338Z,99.99
2023-05-17T01:44:21.344Z,99.99
2023-05-17T01:45:21.318Z,99.99
2023-05-17T01:46:21.300Z,99.99
2023-05-17T01:47:21.300Z,99.99
2023-05-17T01:48:21.343Z,99.99
2023-05-17T01:49:21.278Z,99.99
2023-05-17T01:50:21.243Z,99.99
2023-05-17T01:51:21.270Z,99.99
2023-05-17T01:52:21.262Z,99.99
2023-05-17T01:53:21.267Z,99.99
2023-05-17T01:54:21.208Z,99.99
2023-05-17T01:55:21.209Z,99.99
2023-05-17T01:56:21.180Z,99.99
2023-05-17T01:57:21.185Z,99.99
2023-05-17T01:58:21.280Z,99.99
2023-05-17T01:59:21.169Z,99.99
2023-05-17T02:00:21.153Z,99.99
2023-05-17T02:01:21.143Z,99.99
2023-05-17T02:02:21.137Z,99.99
2023-05-17T02:03:21.132Z,99.99
2023-05-17T02:04:21.287Z,99.99
2023-05-17T02:05:21.092Z,99.99
2023-05-17T02:06:21.103Z,99.99
2023-05-17T02:07:21.094Z,99.99
2023-05-17T02:08:21.100Z,99.99
2023-05-17T02:09:21.030Z,99.99
2023-05-17T02:10:21.027Z,99.99
2023-05-17T02:11:21.052Z,99.99
2023-05-17T02:12:21.049Z,99.99
2023-05-17T02:13:20.983Z,99.99
2023-05-17T02:14:21.081Z,99.99
2023-05-17T02:15:20.977Z,99.99
2023-05-17T02:16:20.954Z,99.99
2023-05-17T02:17:21.165Z,99.99
2023-05-17T02:18:21.004Z,99.99
2023-05-17T02:19:20.937Z,99.99
2023-05-17T02:20:20.923Z,99.99
2023-05-17T02:21:20.858Z,99.99
2023-05-17T02:22:20.855Z,99.99
2023-05-17T02:23:20.859Z,99.99
2023-05-17T02:24:20.833Z,99.99
2023-05-17T02:25:20.852Z,99.99
2023-05-17T02:26:20.805Z,99.99
2023-05-17T02:27:20.819Z,99.99
2023-05-17T02:28:20.783Z,99.99
2023-05-17T02:29:20.761Z,99.99
2023-05-17T02:30:20.844Z,99.99
2023-05-17T02:31:20.760Z,99.99
2023-05-17T02:32:20.793Z,99.99
2023-05-17T02:33:20.794Z,99.99
2023-05-17T02:34:20.694Z,99.99
2023-05-17T02:35:20.712Z,99.99
2023-05-17T02:36:20.771Z,99.99
2023-05-17T02:37:20.667Z,99.99
2023-05-17T02:38:20.891Z,99.99
2023-05-17T02:39:20.642Z,99.99
2023-05-17T02:40:20.656Z,99.99
2023-05-17T02:41:20.655Z,99.99
2023-05-17T02:42:20.654Z,99.99
2023-05-17T02:43:20.641Z,99.99
2023-05-17T02:44:20.599Z,99.99
2023-05-17T02:45:20.603Z,99.99
2023-05-17T02:46:20.812Z,99.99
2023-05-17T02:47:20.591Z,99.99
2023-05-17T02:48:20.610Z,99.99
2023-05-17T02:49:20.556Z,99.99
2023-05-17T02:50:20.542Z,99.99
2023-05-17T02:51:20.535Z,99.99
2023-05-17T02:52:20.515Z,99.99
2023-05-17T02:53:20.477Z,99.99
2023-05-17T02:54:20.506Z,99.99
2023-05-17T02:55:20.496Z,99.99
2023-05-17T02:56:20.434Z,99.99
2023-05-17T02:57:20.483Z,99.99
2023-05-17T02:58:20.440Z,99.99
2023-05-17T02:59:20.440Z,99.99
2023-05-17T03:00:20.534Z,99.99
2023-05-17T03:01:20.373Z,99.99
2023-05-17T03:02:20.496Z,99.99
2023-05-17T03:03:20.508Z,99.99
2023-05-17T03:04:20.419Z,99.99
2023-05-17T03:05:20.342Z,99.99
2023-05-17T03:06:20.551Z,99.99
2023-05-17T03:07:20.300Z,99.99
2023-05-17T03:08:20.268Z,99.99
2023-05-17T03:09:20.277Z,99.99
2023-05-17T03:10:20.288Z,99.99
2023-05-17T03:11:20.264Z,99.99
2023-05-17T03:12:20.217Z,99.99
2023-05-17T03:13:20.235Z,99.99
2023-05-17T03:14:20.206Z,99.99
2023-05-17T03:15:20.218Z,99.99
2023-05-17T03:16:20.185Z,99.99
2023-05-17T03:17:20.184Z,99.99
2023-05-17T03:18:20.438Z,99.99
2023-05-17T03:19:20.353Z,99.99
2023-05-17T03:20:20.233Z,99.99
2023-05-17T03:21:20.158Z,99.99
2023-05-17T03:22:20.110Z,99.99
2023-05-17T03:23:20.083Z,99.99
2023-05-17T03:24:20.095Z,99.99
2023-05-17T03:25:20.266Z,99.99
2023-05-17T03:26:20.068Z,99.99
2023-05-17T03:27:20.139Z,99.99
2023-05-17T03:28:20.050Z,99.99
2023-05-17T03:29:20.013Z,99.99
2023-05-17T03:30:20.064Z,99.99
2023-05-17T03:31:20.014Z,99.99
2023-05-17T03:32:19.992Z,99.99
2023-05-17T03:33:20.183Z,99.99
2023-05-17T03:34:20.051Z,99.99
2023-05-17T03:35:19.958Z,99.99
2023-05-17T03:36:19.969Z,99.99
2023-05-17T03:37:19.970Z,99.99
2023-05-17T03:38:20.039Z,99.99
2023-05-17T03:39:19.895Z,99.99
2023-05-17T03:40:19.895Z,99.99
2023-05-17T03:41:19.970Z,99.99
2023-05-17T03:42:19.961Z,99.99
2023-05-17T03:43:19.839Z,99.99
2023-05-17T03:44:19.831Z,99.99
2023-05-17T03:45:19.880Z,99.99
2023-05-17T03:46:19.789Z,99.99
2023-05-17T03:47:19.808Z,99.99
2023-05-17T03:48:19.873Z,99.99
2023-05-17T03:49:19.855Z,99.99
2023-05-17T03:50:19.892Z,99.99
2023-05-17T03:51:19.819Z,99.99
2023-05-17T03:52:19.722Z,99.99
2023-05-17T03:53:19.925Z,99.99
2023-05-17T03:54:19.729Z,99.99
2023-05-17T03:55:19.719Z,99.99
2023-05-17T03:56:19.676Z,99.99
2023-05-17T03:57:19.686Z,99.99
2023-05-17T03:58:19.661Z,99.99
2023-05-17T03:59:19.654Z,99.99
2023-05-17T04:00:19.623Z,99.99
2023-05-17T04:01:19.632Z,99.99
2023-05-17T04:02:19.591Z,99.99
2023-05-17T04:03:20.394Z,99.99
2023-05-17T04:04:19.763Z,99.99
2023-05-17T04:05:19.673Z,99.99
2023-05-17T04:06:19.635Z,99.99
2023-05-17T04:07:19.580Z,99.99
2023-05-17T04:08:19.580Z,99.99
2023-05-17T04:09:19.589Z,99.99
2023-05-17T04:10:19.741Z,99.99
2023-05-17T04:11:19.480Z,99.99
2023-05-17T04:12:19.536Z,99.99
2023-05-17T04:13:19.469Z,99.99
2023-05-17T04:14:19.514Z,99.99
2023-05-17T04:15:20.106Z,99.99
2023-05-17T04:16:19.669Z,99.99
2023-05-17T04:17:19.446Z,99.99
2023-05-17T04:18:19.618Z,99.99
2023-05-17T04:19:19.513Z,99.99
2023-05-17T04:20:19.499Z,99.99
2023-05-17T04:21:19.461Z,99.99
2023-05-17T04:22:19.555Z,99.99
2023-05-17T04:23:19.442Z,99.99
2023-05-17T04:24:19.348Z,99.99
2023-05-17T04:25:19.293Z,99.99
2023-05-17T04:26:19.344Z,99.99
2023-05-17T04:27:19.326Z,99.99
2023-05-17T04:28:19.477Z,99.99
2023-05-17T04:29:19.322Z,99.99
2023-05-17T04:30:19.477Z,99.99
2023-05-17T04:31:19.238Z,99.99
2023-05-17T04:32:19.222Z,99.99
2023-05-17T04:33:19.320Z,99.99
2023-05-17T04:34:19.240Z,99.99
2023-05-17T04:35:19.211Z,99.99
2023-05-17T04:36:19.236Z,99.99
2023-05-17T04:37:19.156Z,99.99
2023-05-17T04:38:19.278Z,99.99
2023-05-17T04:39:19.183Z,99.99
2023-05-17T04:40:19.152Z,99.99
2023-05-17T04:41:19.123Z,99.99
2023-05-17T04:42:19.101Z,99.99
2023-05-17T04:43:19.103Z,99.99
2023-05-17T04:44:19.147Z,99.99
2023-05-17T04:45:19.084Z,99.99
2023-05-17T04:46:19.096Z,99.99
2023-05-17T04:47:19.048Z,99.99
2023-05-17T04:48:19.061Z,99.99
2023-05-17T04:49:19.042Z,99.99
2023-05-17T04:50:18.989Z,99.99
2023-05-17T04:51:19.012Z,99.99
2023-05-17T04:52:19.044Z,99.99
2023-05-17T04:53:19.034Z,99.99
2023-05-17T04:54:19.154Z,99.99
2023-05-17T04:55:18.974Z,99.99
2023-05-17T04:56:19.168Z,99.99
2023-05-17T04:57:18.916Z,99.99
2023-05-17T04:58:18.880Z,99.99
2023-05-17T04:59:18.921Z,99.99
2023-05-17T05:00:18.909Z,99.99
2023-05-17T05:01:18.894Z,99.99
2023-05-17T05:02:18.830Z,99.99
2023-05-17T05:03:18.896Z,99.99
2023-05-17T05:04:19.204Z,99.99
2023-05-17T05:05:18.807Z,99.99
2023-05-17T05:06:18.824Z,99.99
2023-05-17T05:07:18.795Z,99.99
2023-05-17T05:08:18.870Z,99.99
2023-05-17T05:09:18.746Z,99.99
2023-05-17T05:10:18.894Z,99.99
2023-05-17T05:11:18.754Z,99.99
2023-05-17T05:12:18.785Z,99.99
2023-05-17T05:13:18.746Z,99.99
2023-05-17T05:14:18.706Z,99.99
2023-05-17T05:15:18.736Z,99.99
2023-05-17T05:16:18.694Z,99.99
2023-05-17T05:17:18.684Z,99.99
2023-05-17T05:18:18.756Z,99.99
2023-05-17T05:19:18.736Z,99.99
2023-05-17T05:20:18.681Z,99.99
2023-05-17T05:21:18.635Z,99.99
2023-05-17T05:22:18.636Z,99.99
2023-05-17T05:23:18.791Z,99.99
2023-05-17T05:24:18.577Z,99.99
2023-05-17T05:25:18.582Z,99.99
2023-05-17T05:26:18.690Z,99.99
2023-05-17T05:27:18.573Z,99.99
2023-05-17T05:28:18.586Z,99.99
2023-05-17T05:29:18.562Z,99.99
2023-05-17T05:30:18.533Z,99.99
2023-05-17T05:31:18.545Z,99.99
2023-05-17T05:32:18.539Z,99.99
2023-05-17T05:33:18.592Z,99.99
2023-05-17T05:34:18.523Z,99.99
2023-05-17T05:35:18.504Z,99.99
2023-05-17T05:36:18.511Z,99.99
2023-05-17T05:37:18.749Z,99.99
2023-05-17T05:38:18.475Z,99.99
2023-05-17T05:39:18.457Z,99.99
2023-05-17T05:40:18.448Z,99.99
2023-05-17T05:41:18.627Z,99.99
2023-05-17T05:42:18.543Z,99.99
2023-05-17T05:43:18.369Z,99.99
2023-05-17T05:44:18.384Z,99.99
2023-05-17T05:45:18.378Z,99.99
2023-05-17T05:46:18.358Z,99.99
2023-05-17T05:47:18.405Z,99.99
2023-05-17T05:48:18.475Z,99.99
2023-05-17T05:49:18.332Z,99.99
2023-05-17T05:50:18.331Z,99.99
2023-05-17T05:51:18.312Z,99.99
2023-05-17T05:52:18.578Z,99.99
2023-05-17T05:53:19.736Z,99.99
2023-05-17T05:54:18.287Z,99.99
2023-05-17T05:55:18.279Z,99.99
2023-05-17T05:56:18.251Z,99.99
2023-05-17T05:57:18.255Z,99.99
2023-05-17T05:58:18.341Z,99.99
2023-05-17T05:59:18.231Z,99.99
2023-05-17T06:00:18.204Z,99.99
2023-05-17T06:01:18.213Z,99.99
2023-05-17T06:02:18.206Z,99.99
2023-05-17T06:03:18.155Z,99.99
2023-05-17T06:04:19.720Z,99.99
2023-05-17T06:05:18.201Z,99.99
2023-05-17T06:06:18.214Z,99.99
2023-05-17T06:07:18.124Z,99.99
2023-05-17T06:08:18.104Z,99.99
2023-05-17T06:09:18.122Z,99.99
2023-05-17T06:10:18.108Z,99.99
2023-05-17T06:11:18.099Z,99.99
2023-05-17T06:12:18.107Z,99.99
2023-05-17T06:13:18.101Z,99.99
2023-05-17T06:14:18.145Z,99.99
2023-05-17T06:15:18.068Z,99.99
2023-05-17T06:16:18.063Z,99.99
2023-05-17T06:17:18.024Z,99.99
2023-05-17T06:18:18.123Z,99.99
2023-05-17T06:19:18.150Z,99.99
2023-05-17T06:20:17.988Z,99.99
2023-05-17T06:21:17.989Z,99.99
2023-05-17T06:22:17.966Z,99.99
2023-05-17T06:23:17.989Z,99.99
2023-05-17T06:24:17.978Z,99.99
2023-05-17T06:25:17.949Z,99.99
2023-05-17T06:26:17.939Z,99.99
2023-05-17T06:27:17.925Z,99.99
2023-05-17T06:28:17.893Z,99.99
2023-05-17T06:29:17.915Z,99.99
2023-05-17T06:30:18.092Z,99.99
2023-05-17T06:31:19.748Z,99.99
2023-05-17T06:32:17.860Z,99.99
2023-05-17T06:33:17.977Z,99.99
2023-05-17T06:34:17.833Z,99.99
2023-05-17T06:35:17.925Z,99.99
2023-05-17T06:36:17.862Z,99.99
2023-05-17T06:37:17.835Z,99.99
2023-05-17T06:38:17.815Z,99.99
2023-05-17T06:39:17.791Z,99.99
2023-05-17T06:40:17.817Z,99.99
2023-05-17T06:41:17.799Z,99.99
2023-05-17T06:42:17.800Z,99.99
2023-05-17T06:43:17.759Z,99.99
2023-05-17T06:44:17.758Z,99.99
2023-05-17T06:45:17.750Z,99.99
2023-05-17T06:46:17.840Z,99.99
2023-05-17T06:47:17.767Z,99.99
2023-05-17T06:48:17.814Z,99.99
2023-05-17T06:49:17.675Z,99.99
2023-05-17T06:50:17.707Z,99.99
2023-05-17T06:51:17.694Z,99.99
2023-05-17T06:52:17.699Z,99.99
2023-05-17T06:53:17.688Z,99.99
2023-05-17T06:54:17.657Z,99.99
2023-05-17T06:55:17.649Z,99.99
2023-05-17T06:56:17.618Z,99.99
2023-05-17T06:57:17.826Z,99.99
2023-05-17T06:58:17.594Z,99.99
2023-05-17T06:59:17.632Z,99.99
2023-05-17T07:00:17.609Z,99.99
2023-05-17T07:01:17.570Z,99.99
2023-05-17T07:02:17.676Z,99.99
2023-05-17T07:03:17.663Z,99.99
2023-05-17T07:04:17.709Z,99.99
2023-05-17T07:05:17.576Z,99.99
2023-05-17T07:06:17.524Z,99.99
2023-05-17T07:07:17.500Z,99.99
2023-05-17T07:08:17.477Z,99.99
2023-05-17T07:09:17.476Z,99.99
2023-05-17T07:10:17.473Z,99.99
2023-05-17T07:11:17.471Z,99.99
2023-05-17T07:12:17.459Z,99.99
2023-05-17T07:13:17.433Z,99.99
2023-05-17T07:14:17.428Z,99.99
2023-05-17T07:15:17.418Z,99.99
2023-05-17T07:16:17.405Z,99.99
2023-05-17T07:17:17.425Z,99.99
2023-05-17T07:18:17.624Z,99.99
2023-05-17T07:19:17.669Z,99.99
2023-05-17T07:20:17.363Z,99.99
2023-05-17T07:21:17.716Z,99.99
2023-05-17T07:22:17.563Z,99.99
2023-05-17T07:23:17.332Z,99.99
2023-05-17T07:24:17.325Z,99.99
2023-05-17T07:25:17.305Z,99.99
2023-05-17T07:26:17.487Z,99.99
2023-05-17T07:27:17.301Z,99.99
2023-05-17T07:28:17.719Z,99.99
2023-05-17T07:29:17.266Z,99.99
2023-05-17T07:30:17.307Z,99.99
2023-05-17T07:31:17.250Z,99.99
2023-05-17T07:32:17.240Z,99.99
2023-05-17T07:33:17.427Z,99.99
2023-05-17T07:34:17.363Z,99.99
2023-05-17T07:35:18.204Z,99.99
2023-05-17T07:36:17.281Z,99.99
2023-05-17T07:37:17.203Z,99.99
2023-05-17T07:38:17.202Z,99.99
2023-05-17T07:39:17.168Z,99.99
2023-05-17T07:40:17.158Z,99.99
2023-05-17T07:41:17.214Z,99.99
2023-05-17T07:42:17.158Z,99.99
2023-05-17T07:43:17.136Z,99.99
2023-05-17T07:44:17.149Z,99.99
2023-05-17T07:45:17.129Z,99.99
2023-05-17T07:46:17.326Z,99.99
2023-05-17T07:47:17.201Z,99.99
2023-05-17T07:48:17.187Z,99.99
2023-05-17T07:49:17.290Z,99.99
2023-05-17T07:50:17.129Z,99.99
2023-05-17T07:51:17.081Z,99.99
2023-05-17T07:52:17.063Z,99.99
2023-05-17T07:53:17.035Z,99.99
2023-05-17T07:54:17.061Z,99.99
2023-05-17T07:55:17.314Z,99.99
2023-05-17T07:56:17.025Z,99.99
2023-05-17T07:57:17.012Z,99.99
2023-05-17T07:58:17.014Z,99.99
2023-05-17T07:59:16.976Z,99.99
2023-05-17T08:00:16.975Z,99.99
2023-05-17T08:01:16.968Z,99.99
2023-05-17T08:02:16.949Z,99.99
2023-05-17T08:03:17.568Z,99.99
2023-05-17T08:04:17.176Z,99.99
2023-05-17T08:05:16.920Z,99.99
2023-05-17T08:06:17.028Z,99.99
2023-05-17T08:07:16.905Z,99.99
2023-05-17T08:08:16.900Z,99.99
2023-05-17T08:09:16.881Z,99.99
2023-05-17T08:10:16.878Z,99.99
2023-05-17T08:11:16.884Z,99.99
2023-05-17T08:12:16.862Z,99.99
2023-05-17T08:13:16.838Z,99.99
2023-05-17T08:14:16.890Z,99.99
2023-05-17T08:15:16.855Z,99.99
2023-05-17T08:16:16.821Z,99.99
2023-05-17T08:17:16.812Z,99.99
2023-05-17T08:18:16.896Z,99.99
2023-05-17T08:19:16.903Z,99.99
2023-05-17T08:20:16.803Z,99.99
2023-05-17T08:21:16.767Z,99.99
2023-05-17T08:22:16.803Z,99.99
2023-05-17T08:23:16.741Z,99.99
2023-05-17T08:24:16.743Z,99.99
2023-05-17T08:25:16.737Z,99.99
2023-05-17T08:26:16.723Z,99.99
2023-05-17T08:27:16.919Z,99.99
2023-05-17T08:28:16.713Z,99.99
2023-05-17T08:29:16.689Z,99.99
2023-05-17T08:30:28.149Z,99.99
2023-05-17T08:31:16.687Z,99.99
2023-05-17T08:32:16.653Z,99.99
2023-05-17T08:33:16.786Z,99.99
2023-05-17T08:34:16.676Z,99.99
2023-05-17T08:35:16.616Z,99.99
2023-05-17T08:36:16.596Z,99.99
2023-05-17T08:37:16.610Z,99.99
2023-05-17T08:38:18.562Z,99.99
2023-05-17T08:39:16.588Z,99.99
2023-05-17T08:40:16.647Z,99.99
2023-05-17T08:41:16.561Z,99.99
2023-05-17T08:42:16.560Z,99.99
2023-05-17T08:43:16.546Z,99.99
2023-05-17T08:44:16.532Z,99.99
2023-05-17T08:45:16.532Z,99.99
2023-05-17T08:46:16.950Z,99.99
2023-05-17T08:47:16.704Z,99.99
2023-05-17T08:48:16.583Z,99.99
2023-05-17T08:49:16.855Z,99.99
2023-05-17T08:50:16.489Z,99.99
2023-05-17T08:51:16.452Z,99.99
2023-05-17T08:52:16.452Z,99.99
2023-05-17T08:53:16.509Z,99.99
2023-05-17T08:54:16.652Z,99.99
2023-05-17T08:55:16.657Z,99.99
2023-05-17T08:56:16.429Z,99.99
2023-05-17T08:57:16.411Z,99.99
2023-05-17T08:58:16.392Z,99.99
2023-05-17T08:59:16.377Z,99.99
2023-05-17T09:00:16.374Z,99.99
2023-05-17T09:01:16.373Z,99.99
2023-05-17T09:02:16.384Z,99.99
2023-05-17T09:03:16.400Z,99.99
2023-05-17T09:04:16.384Z,99.99
2023-05-17T09:05:16.386Z,99.99
2023-05-17T09:06:16.311Z,99.99
2023-05-17T09:07:17.332Z,99.99
2023-05-17T09:08:16.304Z,99.99
2023-05-17T09:09:16.518Z,99.99
2023-05-17T09:10:16.501Z,99.99
2023-05-17T09:11:16.272Z,99.99
2023-05-17T09:12:16.245Z,99.32
2023-05-17T09:13:16.258Z,98.94
2023-05-17T09:14:16.428Z,99.08
2023-05-17T09:15:16.247Z,98.90
2023-05-17T09:16:16.212Z,99.75
2023-05-17T09:17:16.435Z,99.46
2023-05-17T09:18:19.257Z,98.80
2023-05-17T09:19:16.242Z,98.90
2023-05-17T09:20:16.284Z,98.90
2023-05-17T09:21:16.191Z,98.80
2023-05-17T09:22:16.144Z,98.80
2023-05-17T09:23:16.165Z,99.99
2023-05-17T09:24:16.152Z,99.99
2023-05-17T09:25:16.148Z,99.99
2023-05-17T09:26:16.378Z,99.99
2023-05-17T09:27:16.117Z,99.99
2023-05-17T09:28:16.131Z,99.99
2023-05-17T09:29:16.105Z,99.99
2023-05-17T09:30:16.077Z,99.99
2023-05-17T09:31:16.077Z,99.99
2023-05-17T09:32:16.068Z,99.99
2023-05-17T09:33:18.638Z,99.99
2023-05-17T09:34:16.045Z,99.99
2023-05-17T09:35:16.052Z,99.99
2023-05-17T09:36:16.024Z,99.99
2023-05-17T09:37:16.054Z,99.99
2023-05-17T09:38:16.010Z,99.99
2023-05-17T09:39:16.004Z,99.99
2023-05-17T09:40:15.991Z,99.13
2023-05-17T09:41:15.999Z,99.80
2023-05-17T09:42:16.003Z,98.47
2023-05-17T09:43:15.967Z,97.80
2023-05-17T09:44:15.995Z,97.66
2023-05-17T09:45:15.973Z,96.03
2023-05-17T09:46:15.922Z,94.51
2023-05-17T09:47:15.933Z,92.93
2023-05-17T09:48:16.103Z,90.45
2023-05-17T09:49:15.927Z,88.29
2023-05-17T09:50:15.908Z,88.87
2023-05-17T09:51:15.916Z,89.10
2023-05-17T09:52:15.918Z,86.90
2023-05-17T09:53:15.883Z,84.99
2023-05-17T09:54:15.893Z,85.61
2023-05-17T09:55:15.862Z,84.84
2023-05-17T09:56:15.843Z,80.25
2023-05-17T09:57:15.857Z,81.78
2023-05-17T09:58:16.010Z,85.03
2023-05-17T09:59:15.837Z,81.40
2023-05-17T10:00:15.822Z,80.06
2023-05-17T10:01:15.798Z,81.30
2023-05-17T10:02:15.796Z,82.64
2023-05-17T10:03:15.901Z,81.02
2023-05-17T10:04:15.871Z,83.40
2023-05-17T10:05:16.096Z,82.51
2023-05-17T10:06:23.780Z,82.60
2023-05-17T10:07:15.782Z,82.56
2023-05-17T10:08:15.795Z,84.56
2023-05-17T10:09:16.034Z,83.51
2023-05-17T10:10:15.766Z,85.14
2023-05-17T10:11:15.738Z,84.43
2023-05-17T10:12:15.767Z,85.00
2023-05-17T10:13:15.727Z,84.05
2023-05-17T10:14:15.805Z,84.77
2023-05-17T10:15:15.811Z,86.20
2023-05-17T10:16:15.725Z,87.06
2023-05-17T10:17:15.704Z,86.68
2023-05-17T10:18:15.788Z,86.77
2023-05-17T10:19:15.767Z,87.15
2023-05-17T10:20:15.814Z,88.68
2023-05-17T10:21:15.866Z,87.06
2023-05-17T10:22:23.409Z,86.96
2023-05-17T10:23:15.662Z,88.59
2023-05-17T10:24:15.642Z,86.30
2023-05-17T10:25:15.677Z,85.53
2023-05-17T10:26:15.643Z,85.05
2023-05-17T10:27:15.610Z,85.15
2023-05-17T10:28:15.609Z,85.82
2023-05-17T10:29:15.613Z,84.81
2023-05-17T10:30:15.621Z,85.86
2023-05-17T10:31:15.589Z,86.63
2023-05-17T10:32:15.572Z,88.54
2023-05-17T10:33:15.632Z,85.90
2023-05-17T10:34:15.596Z,85.57
2023-05-17T10:35:15.599Z,84.89
2023-05-17T10:36:15.580Z,84.89
2023-05-17T10:37:15.548Z,81.36
2023-05-17T10:38:15.542Z,82.98
2023-05-17T10:39:15.539Z,83.94
2023-05-17T10:40:15.510Z,84.32
2023-05-17T10:41:15.495Z,82.41
2023-05-17T10:42:15.689Z,82.51
2023-05-17T10:43:15.513Z,84.13
2023-05-17T10:44:15.501Z,84.03
2023-05-17T10:45:15.484Z,81.45
2023-05-17T10:46:15.543Z,82.51
2023-05-17T10:47:15.436Z,82.37
2023-05-17T10:48:15.509Z,81.03
2023-05-17T10:49:15.730Z,82.56
2023-05-17T10:50:15.649Z,84.47
2023-05-17T10:51:15.450Z,82.94
2023-05-17T10:52:15.414Z,82.94
2023-05-17T10:53:15.416Z,82.60
2023-05-17T10:54:15.585Z,81.26
2023-05-17T10:55:15.423Z,82.31
2023-05-17T10:56:15.391Z,80.40
2023-05-17T10:57:15.378Z,79.44
2023-05-17T10:58:15.403Z,79.64
2023-05-17T10:59:15.379Z,81.45
2023-05-17T11:00:15.396Z,81.65
2023-05-17T11:01:15.334Z,81.84
2023-05-17T11:02:15.373Z,80.30
2023-05-17T11:03:15.378Z,79.16
2023-05-17T11:04:15.393Z,80.40
2023-05-17T11:05:15.600Z,80.69
2023-05-17T11:06:22.550Z,78.78
2023-05-17T11:07:15.312Z,77.53
2023-05-17T11:08:15.296Z,80.59
2023-05-17T11:09:15.305Z,80.88
2023-05-17T11:10:15.280Z,79.35
2023-05-17T11:11:15.257Z,79.22
2023-05-17T11:12:15.283Z,80.17
2023-05-17T11:13:15.296Z,80.65
2023-05-17T11:14:15.237Z,80.74
2023-05-17T11:15:15.278Z,79.41
2023-05-17T11:16:17.317Z,83.23
2023-05-17T11:17:15.239Z,82.46
2023-05-17T11:18:26.533Z,81.60
2023-05-17T11:19:15.249Z,83.42
2023-05-17T11:20:16.657Z,85.52
2023-05-17T11:21:15.215Z,85.62
2023-05-17T11:22:15.197Z,84.56
2023-05-17T11:23:15.186Z,85.71
2023-05-17T11:24:15.183Z,85.52
2023-05-17T11:25:15.163Z,85.05
2023-05-17T11:26:16.145Z,82.75
2023-05-17T11:27:15.183Z,84.19
2023-05-17T11:28:15.179Z,82.37
2023-05-17T11:29:15.163Z,83.13
2023-05-17T11:30:15.207Z,83.51
2023-05-17T11:31:15.129Z,81.51
2023-05-17T11:32:15.106Z,82.46
2023-05-17T11:33:29.037Z,84.09
2023-05-17T11:34:15.202Z,83.13
2023-05-17T11:35:15.124Z,83.51
2023-05-17T11:36:15.109Z,84.95
2023-05-17T11:37:15.101Z,83.13
2023-05-17T11:38:15.086Z,82.56
2023-05-17T11:39:15.146Z,83.51
2023-05-17T11:40:15.106Z,83.08
2023-05-17T11:41:23.322Z,83.94
2023-05-17T11:42:15.032Z,81.32
2023-05-17T11:43:15.031Z,79.50
2023-05-17T11:44:15.048Z,80.36
2023-05-17T11:45:15.022Z,81.03
2023-05-17T11:46:15.010Z,79.64
2023-05-17T11:47:15.038Z,79.16
2023-05-17T11:48:15.200Z,78.68
2023-05-17T11:49:26.843Z,79.68
2023-05-17T11:50:15.025Z,77.57
2023-05-17T11:51:14.988Z,77.13
2023-05-17T11:52:14.960Z,77.51
2023-05-17T11:53:14.954Z,73.97
2023-05-17T11:54:14.938Z,76.65
2023-05-17T11:55:14.945Z,75.66
2023-05-17T11:56:14.963Z,74.04
2023-05-17T11:57:14.945Z,73.80
2023-05-17T11:58:14.931Z,74.66
2023-05-17T11:59:14.961Z,74.66
2023-05-17T12:00:14.924Z,75.39
2023-05-17T12:01:14.912Z,75.87
2023-05-17T12:02:14.887Z,73.96
2023-05-17T12:03:14.956Z,73.29
2023-05-17T12:04:14.910Z,73.35
2023-05-17T12:05:14.877Z,75.30
2023-05-17T12:06:14.948Z,76.50
2023-05-17T12:07:14.841Z,76.82
2023-05-17T12:08:14.886Z,77.40
2023-05-17T12:09:14.861Z,76.67
2023-05-17T12:10:14.837Z,75.81
2023-05-17T12:11:14.850Z,75.37
2023-05-17T12:12:14.788Z,74.84
2023-05-17T12:13:14.779Z,69.86
2023-05-17T12:14:14.783Z,70.87
2023-05-17T12:15:14.764Z,70.59
2023-05-17T12:16:17.875Z,71.07
2023-05-17T12:17:14.746Z,74.84
2023-05-17T12:18:14.832Z,74.45
2023-05-17T12:19:14.848Z,72.96
2023-05-17T12:20:14.838Z,73.34
2023-05-17T12:21:14.737Z,70.79
2023-05-17T12:22:14.870Z,70.03
2023-05-17T12:23:14.702Z,68.65
2023-05-17T12:24:14.754Z,71.52
2023-05-17T12:25:14.693Z,70.72
2023-05-17T12:26:14.693Z,70.37
2023-05-17T12:27:14.687Z,69.13
2023-05-17T12:28:14.668Z,69.32
2023-05-17T12:29:14.668Z,69.89
2023-05-17T12:30:14.659Z,68.94
2023-05-17T12:31:14.656Z,69.23
2023-05-17T12:32:14.637Z,69.51
2023-05-17T12:33:14.691Z,69.35
2023-05-17T12:34:14.670Z,68.27
2023-05-17T12:35:14.632Z,68.55
2023-05-17T12:36:14.647Z,69.32
2023-05-17T12:37:14.622Z,72.09
2023-05-17T12:38:14.618Z,68.84
2023-05-17T12:39:14.624Z,69.60
2023-05-17T12:40:14.581Z,69.70
2023-05-17T12:41:14.568Z,71.71
2023-05-17T12:42:14.565Z,69.19
2023-05-17T12:43:14.557Z,70.62
2023-05-17T12:44:16.243Z,70.40
2023-05-17T12:45:14.564Z,71.26
2023-05-17T12:46:14.583Z,71.58
2023-05-17T12:47:14.554Z,74.93
2023-05-17T12:48:14.578Z,72.25
2023-05-17T12:49:14.579Z,69.38
2023-05-17T12:50:14.518Z,67.85
2023-05-17T12:51:14.530Z,69.00
2023-05-17T12:52:14.512Z,68.33